createdAt,value
2023-01-10T00:00:16.142Z,70.60
2023-01-10T00:05:41.141Z,69.15
2023-01-10T00:10:45.183Z,69.01
2023-01-10T00:15:49.511Z,68.90
2023-01-10T00:20:53.247Z,68.82
2023-01-10T00:25:57.073Z,68.97
2023-01-10T00:31:02.376Z,69.08
2023-01-10T00:36:09.101Z,68.98
2023-01-10T00:41:32.713Z,68.69
2023-01-10T00:46:36.458Z,68.18
2023-01-10T00:51:40.070Z,68.47
2023-01-10T00:56:43.685Z,68.48
2023-01-10T01:01:47.612Z,68.60
2023-01-10T01:06:51.621Z,68.59
2023-01-10T01:11:56.616Z,68.85
2023-01-10T01:17:00.239Z,69.06
2023-01-10T01:22:03.960Z,68.84
2023-01-10T01:27:07.477Z,68.99
2023-01-10T01:32:11.155Z,69.18
2023-01-10T01:37:15.262Z,69.28
2023-01-10T01:42:30.947Z,69.29
2023-01-10T01:47:41.916Z,69.31
2023-01-10T01:52:49.004Z,69.49
2023-01-10T01:57:58.136Z,69.66
2023-01-10T02:03:03.730Z,69.77
2023-01-10T02:08:08.635Z,70.02
2023-01-10T02:13:16.697Z,69.80
2023-01-10T02:18:22.685Z,69.60
2023-01-10T02:24:01.291Z,69.23
2023-01-10T02:29:32.153Z,68.74
2023-01-10T02:35:24.723Z,68.73
2023-01-10T02:40:50.691Z,68.57
2023-01-10T02:46:14.082Z,69.05
2023-01-10T02:51:24.341Z,68.98
2023-01-10T02:56:49.838Z,68.47
2023-01-10T03:02:03.835Z,68.66
2023-01-10T03:07:44.146Z,69.30
2023-01-10T03:13:16.070Z,68.98
2023-01-10T03:18:39.533Z,62.12
2023-01-10T03:23:45.254Z,59.05
2023-01-10T03:29:01.155Z,57.82
2023-01-10T03:34:05.302Z,60.51
2023-01-10T03:39:48.111Z,68.12
2023-01-10T03:45:09.624Z,64.56
2023-01-10T03:50:24.883Z,60.31
2023-01-10T03:55:30.405Z,57.27
2023-01-10T04:00:34.360Z,58.85
2023-01-10T04:05:38.306Z,60.68
2023-01-10T04:10:42.230Z,69.78
2023-01-10T04:15:46.016Z,68.74
2023-01-10T04:20:52.082Z,62.56
2023-01-10T04:25:56.052Z,56.73
2023-01-10T04:30:59.892Z,56.80
2023-01-10T04:36:03.636Z,66.33
2023-01-10T04:41:07.381Z,66.38
2023-01-10T04:46:11.207Z,60.85
2023-01-10T04:51:15.089Z,56.44
2023-01-10T04:56:21.885Z,58.03
2023-01-10T05:01:27.169Z,63.74
2023-01-10T05:06:31.033Z,70.06
2023-01-10T05:11:34.729Z,64.38
2023-01-10T05:16:38.537Z,59.57
2023-01-10T05:21:42.339Z,56.37
2023-01-10T05:26:46.952Z,59.89
2023-01-10T05:31:52.452Z,67.73
2023-01-10T05:36:56.094Z,65.47
2023-01-10T05:42:00.686Z,62.12
2023-01-10T05:47:04.581Z,58.12
2023-01-10T05:52:08.710Z,58.04
2023-01-10T05:57:12.686Z,60.73
2023-01-10T06:02:16.368Z,69.29
2023-01-10T06:07:20.007Z,65.40
2023-01-10T06:12:23.674Z,63.11
2023-01-10T06:17:27.962Z,61.19
2023-01-10T06:22:31.983Z,59.48
2023-01-10T06:27:35.716Z,59.95
2023-01-10T06:32:39.589Z,66.97
2023-01-10T06:37:43.576Z,62.78
2023-01-10T06:42:47.188Z,58.42
2023-01-10T06:47:50.894Z,60.04
2023-01-10T06:53:00.581Z,68.22
2023-01-10T06:58:05.398Z,64.55
2023-01-10T07:03:10.330Z,61.18
2023-01-10T07:08:13.801Z,59.61
2023-01-10T07:13:17.358Z,57.92
2023-01-10T07:18:21.247Z,65.87
2023-01-10T07:23:24.847Z,65.42
2023-01-10T07:28:28.617Z,61.64
2023-01-10T07:33:32.781Z,60.09
2023-01-10T07:38:38.371Z,60.50
2023-01-10T07:43:42.058Z,55.94
2023-01-10T07:48:47.258Z,59.47
2023-01-10T07:53:51.123Z,67.92
2023-01-10T07:58:54.854Z,63.57
2023-01-10T08:03:59.275Z,58.55
2023-01-10T08:09:05.649Z,58.13
2023-01-10T08:14:09.554Z,59.67
2023-01-10T08:19:17.267Z,67.42
2023-01-10T08:24:20.865Z,67.46
2023-01-10T08:29:24.715Z,62.21
2023-01-10T08:34:28.405Z,60.79
2023-01-10T08:39:32.105Z,57.43
2023-01-10T08:44:36.074Z,56.92
2023-01-10T08:49:39.747Z,59.03
2023-01-10T08:54:44.224Z,69.57
2023-01-10T08:59:48.088Z,66.74
2023-01-10T09:04:52.028Z,59.89
2023-01-10T09:09:55.677Z,55.30
2023-01-10T09:14:59.590Z,63.52
2023-01-10T09:20:10.539Z,63.86
2023-01-10T09:25:14.136Z,57.40
2023-01-10T09:30:18.255Z,58.40
2023-01-10T09:35:24.333Z,60.38
2023-01-10T09:41:22.076Z,68.32
2023-01-10T09:47:08.385Z,64.12
2023-01-10T09:52:33.980Z,55.84
2023-01-10T09:57:38.034Z,58.30
2023-01-10T10:02:48.424Z,60.95
2023-01-10T10:08:02.657Z,70.64
2023-01-10T10:13:26.460Z,63.44
2023-01-10T10:19:02.250Z,58.98
2023-01-10T10:24:33.270Z,54.06
2023-01-10T10:29:43.250Z,61.72
2023-01-10T10:35:09.942Z,66.24
2023-01-10T10:40:33.534Z,62.42
2023-01-10T10:45:44.883Z,58.70
2023-01-10T10:51:26.105Z,64.50
2023-01-10T10:56:30.915Z,61.95
2023-01-10T11:01:34.933Z,57.68
2023-01-10T11:06:46.328Z,62.61
2023-01-10T11:11:52.357Z,63.35
2023-01-10T11:17:28.340Z,60.70
2023-01-10T11:22:47.633Z,59.35
2023-01-10T11:28:01.330Z,63.59
2023-01-10T11:33:20.414Z,64.94
2023-01-10T11:38:25.143Z,60.83
2023-01-10T11:43:40.561Z,61.02
2023-01-10T11:49:06.195Z,61.02
2023-01-10T11:54:29.456Z,61.79
2023-01-10T11:59:33.834Z,61.59
2023-01-10T12:04:47.524Z,61.28
2023-01-10T12:10:04.260Z,57.63
2023-01-10T12:15:30.151Z,64.84
2023-01-10T12:20:48.909Z,64.72
2023-01-10T12:26:10.674Z,61.51
2023-01-10T12:31:16.769Z,57.64
2023-01-10T12:37:31.042Z,57.42
2023-01-10T12:43:32.760Z,66.55
2023-01-10T12:48:54.165Z,65.05
2023-01-10T12:54:09.158Z,62.26
2023-01-10T12:59:37.157Z,56.79
2023-01-10T13:04:47.577Z,61.52
2023-01-10T13:09:52.155Z,65.11
2023-01-10T13:15:21.716Z,61.98
2023-01-10T13:20:39.877Z,58.88
2023-01-10T13:25:56.497Z,65.59
2023-01-10T13:31:32.865Z,63.34
2023-01-10T13:36:45.018Z,62.02
2023-01-10T13:42:26.421Z,60.45
2023-01-10T13:47:46.811Z,59.11
2023-01-10T13:52:52.947Z,57.18
2023-01-10T13:58:01.866Z,59.64
2023-01-10T14:03:06.848Z,67.40
2023-01-10T14:08:18.496Z,67.40
2023-01-10T14:13:23.906Z,65.02
2023-01-10T14:18:42.075Z,64.40
2023-01-10T14:23:53.527Z,63.52
2023-01-10T14:29:01.578Z,63.26
2023-01-10T14:34:18.472Z,64.02
2023-01-10T14:39:24.700Z,63.51
2023-01-10T14:44:37.691Z,63.92
2023-01-10T14:49:54.317Z,64.42
2023-01-10T14:55:22.854Z,65.16
2023-01-10T15:00:37.146Z,65.41
2023-01-10T15:05:50.451Z,65.98
2023-01-10T15:11:08.941Z,66.16
2023-01-10T15:16:23.421Z,66.25
2023-01-10T15:21:27.864Z,66.42
2023-01-10T15:26:33.824Z,66.79
2023-01-10T15:31:40.349Z,67.66
2023-01-10T15:36:51.709Z,67.07
2023-01-10T15:42:10.383Z,67.03
2023-01-10T15:47:49.990Z,66.89
2023-01-10T15:53:05.435Z,67.35
2023-01-10T15:58:36.815Z,67.09
2023-01-10T16:03:57.162Z,67.53
2023-01-10T16:09:06.428Z,67.76
2023-01-10T16:14:10.123Z,68.04
2023-01-10T16:19:14.746Z,68.28
2023-01-10T16:24:25.858Z,68.01
2023-01-10T16:29:30.168Z,68.26
2023-01-10T16:34:34.911Z,68.27
2023-01-10T16:39:40.612Z,68.30
2023-01-10T16:44:45.896Z,68.69
2023-01-10T16:49:49.649Z,68.66
2023-01-10T16:54:53.933Z,68.67
2023-01-10T16:59:57.665Z,69.38
2023-01-10T17:05:01.414Z,69.76
2023-01-10T17:10:06.461Z,69.58
2023-01-10T17:15:15.772Z,68.89
2023-01-10T17:20:20.615Z,69.53
2023-01-10T17:25:25.314Z,69.93
2023-01-10T17:30:28.940Z,69.78
2023-01-10T17:35:34.186Z,69.97
2023-01-10T17:40:45.982Z,70.06
2023-01-10T17:45:52.098Z,69.54
2023-01-10T17:51:00.185Z,68.86
2023-01-10T17:56:32.240Z,68.33
2023-01-10T18:01:36.500Z,68.50
2023-01-10T18:06:40.512Z,68.58
2023-01-10T18:11:45.575Z,68.91
2023-01-10T18:16:50.040Z,69.01
2023-01-10T18:21:53.883Z,69.01
2023-01-10T18:26:58.580Z,69.28
2023-01-10T18:32:02.728Z,69.10
2023-01-10T18:37:06.703Z,69.13
2023-01-10T18:42:12.222Z,69.29
2023-01-10T18:47:16.141Z,70.52
2023-01-10T18:52:21.695Z,66.08
2023-01-10T18:57:26.043Z,65.05
2023-01-10T19:02:30.182Z,64.76
2023-01-10T19:07:34.308Z,64.04
2023-01-10T19:12:41.052Z,64.90
2023-01-10T19:17:46.592Z,64.58
2023-01-10T19:22:50.288Z,63.93
2023-01-10T19:27:54.539Z,64.33
2023-01-10T19:33:17.549Z,63.94
2023-01-10T19:38:21.522Z,64.37
2023-01-10T19:43:26.893Z,65.04
2023-01-10T19:48:30.918Z,65.71
2023-01-10T19:53:39.486Z,66.75
2023-01-10T19:58:43.074Z,66.29
2023-01-10T20:03:49.290Z,64.38
2023-01-10T20:08:55.293Z,64.61
2023-01-10T20:14:02.277Z,66.38
2023-01-10T20:19:14.381Z,67.08
2023-01-10T20:24:21.842Z,67.23
2023-01-10T20:29:31.082Z,68.02
2023-01-10T20:34:35.384Z,69.44
2023-01-10T20:39:40.238Z,68.33
2023-01-10T20:44:44.034Z,68.51
2023-01-10T20:49:48.458Z,69.26
2023-01-10T20:54:54.990Z,69.97
2023-01-10T21:00:00.007Z,68.48
2023-01-10T21:05:04.369Z,67.90
2023-01-10T21:10:09.472Z,64.94
2023-01-10T21:15:13.625Z,61.26
2023-01-10T21:20:17.726Z,61.04
2023-01-10T21:25:21.635Z,57.02
2023-01-10T21:30:25.581Z,57.96
2023-01-10T21:35:29.870Z,66.64
2023-01-10T21:40:35.475Z,65.09
2023-01-10T21:45:42.626Z,61.10
2023-01-10T21:50:52.131Z,57.90
2023-01-10T21:56:00.405Z,65.46
2023-01-10T22:01:04.302Z,66.72
2023-01-10T22:06:08.688Z,61.85
2023-01-10T22:11:14.390Z,60.44
2023-01-10T22:16:20.348Z,57.94
2023-01-10T22:21:24.180Z,59.55
2023-01-10T22:26:28.877Z,66.96
2023-01-10T22:31:32.965Z,62.61
2023-01-10T22:36:37.721Z,61.11
2023-01-10T22:41:41.636Z,57.29
2023-01-10T22:46:46.554Z,63.21
2023-01-10T22:51:51.448Z,64.44
2023-01-10T22:56:55.236Z,61.54
2023-01-10T23:01:58.983Z,56.28
2023-01-10T23:07:03.042Z,60.42
2023-01-10T23:12:08.734Z,66.23
2023-01-10T23:17:12.715Z,61.33
2023-01-10T23:22:16.872Z,58.94
2023-01-10T23:27:20.937Z,66.01
2023-01-10T23:32:24.768Z,62.71
2023-01-10T23:37:28.714Z,59.21
2023-01-10T23:42:33.178Z,64.26
2023-01-10T23:47:37.675Z,60.64
2023-01-10T23:52:41.290Z,58.07
2023-01-10T23:57:45.732Z,65.20
